Ona, West Virginia
Current Conditions -  °F | °C
As of 4:51 AM on Saturday 25 Oct 2014 (Local Time) from KHTS Reporting Station
Clear Clear  
Wind Chill: 38°   Ceiling: Unl
Heat Index: 42°   Visibility: 9mi
Dew Point: 41°   Wind: 6mph
Humidity: 96%   Direction: 200°SSW
Pressure: 30.03"   Gusts: NA
Location:  38.42°N, 82.21°W
Report Text: KHTS 250851Z 20005KT 9SM CLR 06/05 A3003 RMK AO2 SLP167 T00560050 58006
Loading
Personal Weather Stations






























Interactive Weather Map
Tropical Storm Tracking
New forecast layout! Learn more

10-Day Weather Forecast

Advertisements
Track Severe Weather on mobile